createdAt,value
2019-02-11T00:01:48.650Z,5.30
2019-02-11T00:04:19.942Z,5.31
2019-02-11T00:06:51.352Z,5.26
2019-02-11T00:09:22.866Z,5.11
2019-02-11T00:11:54.413Z,4.96
2019-02-11T00:14:25.780Z,4.88
2019-02-11T00:16:57.271Z,4.86
2019-02-11T00:19:29.080Z,4.85
2019-02-11T00:22:00.659Z,4.84
2019-02-11T00:24:32.267Z,4.85
2019-02-11T00:27:05.713Z,4.74
2019-02-11T00:29:37.101Z,4.67
2019-02-11T00:32:08.344Z,4.66
2019-02-11T00:34:39.685Z,4.76
2019-02-11T00:37:11.068Z,4.71
2019-02-11T00:39:42.822Z,4.78
2019-02-11T00:42:14.311Z,4.70
2019-02-11T00:44:45.980Z,4.72
2019-02-11T00:47:17.392Z,4.69
2019-02-11T00:49:48.759Z,4.43
2019-02-11T00:52:20.111Z,4.35
2019-02-11T00:54:51.623Z,4.28
2019-02-11T00:57:23.412Z,4.34
2019-02-11T00:59:55.136Z,4.23
2019-02-11T01:02:26.695Z,4.38
2019-02-11T01:04:58.192Z,4.35
2019-02-11T01:07:29.695Z,4.43
2019-02-11T01:10:01.160Z,4.06
2019-02-11T01:12:32.898Z,4.09
2019-02-11T01:15:05.060Z,4.01
2019-02-11T01:17:37.029Z,3.95
2019-02-11T01:20:10.494Z,4.01
2019-02-11T01:22:42.146Z,4.08
2019-02-11T01:25:13.818Z,4.31
2019-02-11T01:27:45.365Z,4.41
2019-02-11T01:30:16.937Z,4.49
2019-02-11T01:32:48.609Z,4.60
2019-02-11T01:35:20.386Z,4.66
2019-02-11T01:37:51.973Z,4.67
2019-02-11T01:40:23.420Z,4.69
2019-02-11T01:42:54.953Z,4.56
2019-02-11T01:45:26.383Z,4.64
2019-02-11T01:47:57.978Z,4.24
2019-02-11T01:50:29.470Z,4.42
2019-02-11T01:53:01.288Z,4.50
2019-02-11T01:55:32.984Z,4.42
2019-02-11T01:58:04.474Z,4.55
2019-02-11T02:00:35.980Z,4.49
2019-02-11T02:03:07.598Z,4.50
2019-02-11T02:05:39.811Z,4.58
2019-02-11T02:08:11.210Z,4.67
2019-02-11T02:10:42.488Z,4.65
2019-02-11T02:13:14.018Z,4.58
2019-02-11T02:15:45.256Z,4.60
2019-02-11T02:18:16.794Z,4.64
2019-02-11T02:20:48.529Z,4.64
2019-02-11T02:23:20.210Z,4.59
2019-02-11T02:25:51.485Z,4.57
2019-02-11T02:28:23.102Z,4.45
2019-02-11T02:30:54.442Z,4.46
2019-02-11T02:33:26.121Z,4.40
2019-02-11T02:35:57.783Z,4.35
2019-02-11T02:38:29.330Z,4.20
2019-02-11T02:41:01.047Z,4.26
2019-02-11T02:43:32.650Z,4.25
2019-02-11T02:46:04.375Z,4.29
2019-02-11T02:48:35.850Z,4.34
2019-02-11T02:51:07.365Z,4.23
2019-02-11T02:53:38.924Z,4.43
2019-02-11T02:56:10.337Z,4.31
2019-02-11T02:58:41.932Z,4.23
2019-02-11T03:01:13.471Z,4.26
2019-02-11T03:03:44.918Z,4.22
2019-02-11T03:06:16.487Z,4.15
2019-02-11T03:08:47.991Z,4.02
2019-02-11T03:11:19.519Z,3.90
2019-02-11T03:13:51.041Z,3.88
2019-02-11T03:16:22.593Z,3.92
2019-02-11T03:18:54.186Z,3.85
2019-02-11T03:21:25.768Z,3.96
2019-02-11T03:23:57.581Z,3.83
2019-02-11T03:26:29.214Z,3.81
2019-02-11T03:29:00.576Z,3.90
2019-02-11T03:31:32.162Z,3.78
2019-02-11T03:34:03.407Z,3.76
2019-02-11T03:36:34.738Z,3.76
2019-02-11T03:39:07.521Z,3.76
2019-02-11T03:41:39.096Z,3.78
2019-02-11T03:44:15.053Z,3.84
2019-02-11T03:46:43.616Z,3.68
2019-02-11T03:49:15.235Z,3.79
2019-02-11T03:51:46.847Z,3.76
2019-02-11T03:54:18.288Z,3.74
2019-02-11T03:56:49.921Z,3.77
2019-02-11T03:59:21.541Z,3.92
2019-02-11T04:01:52.985Z,3.78
2019-02-11T04:04:24.538Z,3.73
2019-02-11T04:06:55.926Z,3.73
2019-02-11T04:09:27.267Z,3.66
2019-02-11T04:11:58.606Z,3.59
2019-02-11T04:14:30.193Z,3.58
2019-02-11T04:17:01.488Z,3.55
2019-02-11T04:19:32.959Z,3.62
2019-02-11T04:22:08.686Z,3.49
2019-02-11T04:24:40.350Z,3.54
2019-02-11T04:27:11.995Z,3.38
2019-02-11T04:29:43.461Z,3.27
2019-02-11T04:32:15.041Z,3.26
2019-02-11T04:34:46.670Z,3.28
2019-02-11T04:37:18.235Z,3.26
2019-02-11T04:39:49.588Z,3.07
2019-02-11T04:42:20.898Z,3.03
2019-02-11T04:44:52.287Z,2.98
2019-02-11T04:47:23.646Z,2.96
2019-02-11T04:49:55.357Z,2.88
2019-02-11T04:52:26.979Z,2.73
2019-02-11T04:54:58.364Z,2.77
2019-02-11T04:57:31.044Z,2.80
2019-02-11T05:00:02.511Z,2.77
2019-02-11T05:02:34.245Z,2.86
2019-02-11T05:05:06.252Z,2.93
2019-02-11T05:07:37.824Z,3.01
2019-02-11T05:10:10.978Z,2.96
2019-02-11T05:12:42.744Z,2.90
2019-02-11T05:15:14.527Z,2.81
2019-02-11T05:17:46.199Z,2.94
2019-02-11T05:20:17.925Z,2.89
2019-02-11T05:22:49.552Z,2.75
2019-02-11T05:25:21.049Z,2.54
2019-02-11T05:27:52.654Z,2.54
2019-02-11T05:30:24.461Z,2.48
2019-02-11T05:32:56.134Z,2.45
2019-02-11T05:35:27.679Z,2.51
2019-02-11T05:37:59.270Z,2.69
2019-02-11T05:40:30.737Z,2.85
2019-02-11T05:43:02.305Z,2.95
2019-02-11T05:45:33.748Z,2.77
2019-02-11T05:48:05.502Z,2.63
2019-02-11T05:50:37.179Z,2.59
2019-02-11T05:53:08.978Z,2.57
2019-02-11T05:55:40.674Z,2.52
2019-02-11T05:58:11.941Z,2.54
2019-02-11T06:00:43.635Z,2.51
2019-02-11T06:03:15.186Z,2.61
2019-02-11T06:05:46.667Z,2.58
2019-02-11T06:08:18.085Z,2.66
2019-02-11T06:10:49.640Z,2.76
2019-02-11T06:13:21.069Z,2.81
2019-02-11T06:15:52.511Z,2.89
2019-02-11T06:18:24.313Z,2.91
2019-02-11T06:20:55.628Z,3.24
2019-02-11T06:23:27.170Z,3.77
2019-02-11T06:25:58.827Z,4.18
2019-02-11T06:28:30.135Z,4.67
2019-02-11T06:31:01.791Z,5.01
2019-02-11T06:33:33.249Z,5.64
2019-02-11T06:36:11.982Z,6.29
2019-02-11T06:38:38.354Z,6.90
2019-02-11T06:41:09.997Z,6.89
2019-02-11T06:43:41.517Z,6.81
2019-02-11T06:46:13.056Z,6.49
2019-02-11T06:48:44.782Z,6.00
2019-02-11T06:51:16.295Z,5.65
2019-02-11T06:53:47.611Z,5.57
2019-02-11T06:56:19.012Z,5.69
2019-02-11T06:58:50.449Z,5.79
2019-02-11T07:01:21.823Z,5.57
2019-02-11T07:03:53.357Z,5.26
2019-02-11T07:06:25.131Z,5.32
2019-02-11T07:08:57.091Z,5.26
2019-02-11T07:11:28.657Z,5.25
2019-02-11T07:14:00.143Z,5.53
2019-02-11T07:16:31.530Z,5.79
2019-02-11T07:19:03.213Z,6.33
2019-02-11T07:21:34.600Z,6.17
2019-02-11T07:24:06.536Z,6.07
2019-02-11T07:26:38.121Z,5.96
2019-02-11T07:29:09.956Z,5.94
2019-02-11T07:31:41.755Z,5.79
2019-02-11T07:34:13.379Z,5.93
2019-02-11T07:36:44.999Z,5.99
2019-02-11T07:39:16.724Z,5.91
2019-02-11T07:42:05.457Z,5.96
2019-02-11T07:44:40.796Z,6.24
2019-02-11T07:47:12.551Z,6.80
2019-02-11T07:49:44.240Z,6.89
2019-02-11T07:52:15.815Z,6.99
2019-02-11T07:54:47.267Z,7.32
2019-02-11T07:57:19.051Z,7.70
2019-02-11T07:59:50.692Z,7.63
2019-02-11T08:02:22.469Z,7.10
2019-02-11T08:04:54.103Z,6.68
2019-02-11T08:07:25.690Z,6.78
2019-02-11T08:09:57.295Z,6.93
2019-02-11T08:12:28.851Z,6.90
2019-02-11T08:15:00.557Z,7.18
2019-02-11T08:17:32.217Z,7.59
2019-02-11T08:20:04.302Z,7.91
2019-02-11T08:22:35.682Z,8.02
2019-02-11T08:25:07.680Z,7.73
2019-02-11T08:27:39.187Z,7.77
2019-02-11T08:30:11.363Z,7.70
2019-02-11T08:32:43.173Z,8.02
2019-02-11T08:35:15.082Z,8.55
2019-02-11T08:37:46.944Z,8.70
2019-02-11T08:40:18.585Z,9.03
2019-02-11T08:42:50.298Z,8.82
2019-02-11T08:45:22.160Z,8.92
2019-02-11T08:47:54.002Z,9.22
2019-02-11T08:50:25.576Z,9.11
2019-02-11T08:52:57.131Z,9.10
2019-02-11T08:55:28.722Z,9.73
2019-02-11T08:58:00.703Z,9.83
2019-02-11T09:00:32.275Z,9.39
2019-02-11T09:03:04.057Z,9.59
2019-02-11T09:05:35.763Z,9.32
2019-02-11T09:08:07.553Z,9.31
2019-02-11T09:10:39.470Z,9.34
2019-02-11T09:13:11.042Z,9.77
2019-02-11T09:15:43.727Z,10.56
2019-02-11T09:18:15.349Z,10.92
2019-02-11T09:20:47.171Z,10.42
2019-02-11T09:23:18.743Z,10.13
2019-02-11T09:25:50.246Z,9.93
2019-02-11T09:28:21.646Z,9.73
2019-02-11T09:30:53.376Z,9.45
2019-02-11T09:33:24.743Z,9.56
2019-02-11T09:35:56.438Z,9.41
2019-02-11T09:38:27.937Z,9.40
2019-02-11T09:40:59.373Z,9.39
2019-02-11T09:43:31.042Z,9.68
2019-02-11T09:46:04.160Z,9.61
2019-02-11T09:48:36.129Z,9.29
2019-02-11T09:51:08.030Z,9.53
2019-02-11T09:53:39.614Z,9.34
2019-02-11T09:56:11.711Z,9.20
2019-02-11T09:58:43.283Z,8.83
2019-02-11T10:01:15.012Z,8.96
2019-02-11T10:03:46.796Z,9.24
2019-02-11T10:06:18.398Z,9.09
2019-02-11T10:08:50.468Z,9.15
2019-02-11T10:11:22.315Z,9.00
2019-02-11T10:13:54.063Z,8.90
2019-02-11T10:16:25.974Z,8.85
2019-02-11T10:18:57.260Z,9.10
2019-02-11T10:21:29.148Z,8.93
2019-02-11T10:24:01.289Z,8.71
2019-02-11T10:26:32.881Z,8.88
2019-02-11T10:29:04.346Z,9.07
2019-02-11T10:31:35.935Z,9.01
2019-02-11T10:34:07.657Z,8.73
2019-02-11T10:36:39.463Z,8.77
2019-02-11T10:39:10.930Z,9.11
2019-02-11T10:41:42.997Z,9.00
2019-02-11T10:44:15.416Z,8.94
2019-02-11T10:46:47.275Z,9.18
2019-02-11T10:49:19.039Z,9.03
2019-02-11T10:51:50.383Z,8.93
2019-02-11T10:54:22.095Z,8.90
2019-02-11T10:56:53.744Z,8.77
2019-02-11T10:59:25.514Z,8.63
2019-02-11T11:01:56.891Z,8.78
2019-02-11T11:04:28.562Z,8.54
2019-02-11T11:07:00.100Z,8.55
2019-02-11T11:09:31.966Z,8.76
2019-02-11T11:12:03.998Z,8.70
2019-02-11T11:14:37.042Z,8.68
2019-02-11T11:17:09.317Z,8.82
2019-02-11T11:19:40.754Z,8.71
2019-02-11T11:22:12.483Z,8.62
2019-02-11T11:24:44.054Z,8.83
2019-02-11T11:27:15.754Z,8.67
2019-02-11T11:29:47.069Z,8.64
2019-02-11T11:32:18.887Z,8.73
2019-02-11T11:34:50.590Z,8.61
2019-02-11T11:37:22.279Z,8.55
2019-02-11T11:39:53.819Z,8.71
2019-02-11T11:42:25.518Z,8.89
2019-02-11T11:44:57.294Z,8.81
2019-02-11T11:47:29.124Z,8.71
2019-02-11T11:50:00.834Z,8.71
2019-02-11T11:52:32.682Z,8.67
2019-02-11T11:55:04.319Z,8.66
2019-02-11T11:57:36.203Z,8.78
2019-02-11T12:00:18.803Z,8.96
2019-02-11T12:03:01.790Z,8.92
2019-02-11T12:05:23.818Z,9.16
2019-02-11T12:07:56.072Z,9.38
2019-02-11T12:10:30.738Z,9.32
2019-02-11T12:13:20.570Z,9.52
2019-02-11T12:15:36.068Z,9.43
2019-02-11T12:18:07.911Z,9.54
2019-02-11T12:20:39.649Z,9.53
2019-02-11T12:23:11.091Z,9.27
2019-02-11T12:25:42.737Z,9.33
2019-02-11T12:28:16.124Z,9.44
2019-02-11T12:30:47.802Z,9.58
2019-02-11T12:33:19.910Z,9.70
2019-02-11T12:35:52.479Z,9.81
2019-02-11T12:38:24.183Z,9.95
2019-02-11T12:40:56.011Z,10.12
2019-02-11T12:43:27.726Z,10.34
2019-02-11T12:45:59.501Z,10.51
2019-02-11T12:48:31.240Z,10.70
2019-02-11T12:51:02.766Z,10.60
2019-02-11T12:53:34.325Z,10.79
2019-02-11T12:56:05.654Z,10.65
2019-02-11T12:58:37.383Z,10.46
2019-02-11T13:01:09.148Z,10.57
2019-02-11T13:03:40.990Z,10.86
2019-02-11T13:06:12.582Z,10.95
2019-02-11T13:08:44.067Z,11.09
2019-02-11T13:11:16.013Z,11.14
2019-02-11T13:13:47.681Z,11.03
2019-02-11T13:16:19.214Z,11.14
2019-02-11T13:18:50.508Z,11.08
2019-02-11T13:21:21.655Z,11.23
2019-02-11T13:23:53.318Z,10.96
2019-02-11T13:26:24.708Z,10.98
2019-02-11T13:28:55.737Z,11.09
2019-02-11T13:31:27.278Z,11.07
2019-02-11T13:33:58.971Z,11.09
2019-02-11T13:36:30.643Z,11.03
2019-02-11T13:39:02.384Z,10.99
2019-02-11T13:41:35.558Z,11.11
2019-02-11T13:44:11.388Z,10.83
2019-02-11T13:46:40.500Z,10.77
2019-02-11T13:49:13.147Z,10.87
2019-02-11T13:51:45.053Z,11.04
2019-02-11T13:54:16.401Z,11.00
2019-02-11T13:56:48.155Z,11.13
2019-02-11T13:59:19.907Z,11.26
2019-02-11T14:01:51.220Z,11.16
2019-02-11T14:04:23.311Z,11.54
2019-02-11T14:06:54.953Z,11.68
2019-02-11T14:09:26.471Z,11.61
2019-02-11T14:11:57.905Z,11.88
2019-02-11T14:14:31.037Z,11.70
2019-02-11T14:17:02.278Z,11.91
2019-02-11T14:19:33.875Z,12.24
2019-02-11T14:22:05.231Z,12.37
2019-02-11T14:24:36.453Z,12.48
2019-02-11T14:27:07.945Z,12.49
2019-02-11T14:29:39.347Z,12.49
2019-02-11T14:32:10.951Z,12.69
2019-02-11T14:34:43.297Z,12.64
2019-02-11T14:37:15.128Z,12.58
2019-02-11T14:39:47.112Z,12.60
2019-02-11T14:42:18.486Z,12.58
2019-02-11T14:44:50.105Z,12.67
2019-02-11T14:47:21.715Z,12.49
2019-02-11T14:49:53.965Z,12.69
2019-02-11T14:52:25.347Z,12.64
2019-02-11T14:54:56.713Z,12.54
2019-02-11T14:57:28.261Z,12.50
2019-02-11T14:59:59.277Z,12.34
2019-02-11T15:02:30.686Z,12.19
2019-02-11T15:05:02.001Z,11.95
2019-02-11T15:07:33.398Z,11.89
2019-02-11T15:10:05.014Z,11.94
2019-02-11T15:12:36.275Z,11.94
2019-02-11T15:15:07.903Z,11.83
2019-02-11T15:17:39.578Z,11.58
2019-02-11T15:20:12.239Z,11.40
2019-02-11T15:22:43.628Z,11.46
2019-02-11T15:25:15.820Z,11.51
2019-02-11T15:27:47.121Z,11.53
2019-02-11T15:30:19.533Z,11.59
2019-02-11T15:32:50.709Z,11.63
2019-02-11T15:35:22.149Z,11.48
2019-02-11T15:37:53.291Z,11.38
2019-02-11T15:40:24.359Z,11.33
2019-02-11T15:42:55.672Z,11.36
2019-02-11T15:45:27.155Z,11.07
2019-02-11T15:47:58.560Z,11.02
2019-02-11T15:50:29.778Z,11.13
2019-02-11T15:53:01.535Z,11.21
2019-02-11T15:55:33.850Z,11.20
2019-02-11T15:58:04.935Z,11.33
2019-02-11T16:00:35.977Z,11.38
2019-02-11T16:03:07.639Z,11.26
2019-02-11T16:05:39.370Z,11.25
2019-02-11T16:08:10.831Z,11.40
2019-02-11T16:10:42.039Z,11.54
2019-02-11T16:13:13.107Z,11.57
2019-02-11T16:15:44.574Z,11.50
2019-02-11T16:18:15.714Z,11.49
2019-02-11T16:20:47.124Z,11.60
2019-02-11T16:23:18.737Z,11.80
2019-02-11T16:25:50.017Z,11.78
2019-02-11T16:28:21.109Z,11.82
2019-02-11T16:30:52.451Z,11.88
2019-02-11T16:33:23.907Z,11.93
2019-02-11T16:35:55.295Z,11.85
2019-02-11T16:38:26.375Z,11.69
2019-02-11T16:40:57.516Z,11.41
2019-02-11T16:43:28.457Z,11.03
2019-02-11T16:45:59.638Z,11.04
2019-02-11T16:48:31.368Z,11.14
2019-02-11T16:51:02.617Z,11.18
2019-02-11T16:53:33.868Z,11.15
2019-02-11T16:56:05.214Z,11.06
2019-02-11T16:58:36.319Z,11.04
2019-02-11T17:01:07.999Z,10.80
2019-02-11T17:03:39.665Z,10.64
2019-02-11T17:06:11.058Z,10.49
2019-02-11T17:08:42.495Z,10.30
2019-02-11T17:11:13.962Z,10.34
2019-02-11T17:13:45.266Z,10.34
2019-02-11T17:16:17.077Z,10.08
2019-02-11T17:18:48.449Z,9.88
2019-02-11T17:21:19.984Z,9.79
2019-02-11T17:23:51.490Z,9.65
2019-02-11T17:26:23.234Z,9.56
2019-02-11T17:28:55.049Z,9.45
2019-02-11T17:31:26.771Z,9.41
2019-02-11T17:33:58.412Z,9.23
2019-02-11T17:36:30.046Z,9.22
2019-02-11T17:39:01.637Z,9.17
2019-02-11T17:41:34.550Z,9.15
2019-02-11T17:44:06.089Z,9.19
2019-02-11T17:46:37.768Z,9.14
2019-02-11T17:49:17.456Z,9.24
2019-02-11T17:51:43.047Z,9.30
2019-02-11T17:54:14.486Z,9.37
2019-02-11T17:56:46.075Z,9.35
2019-02-11T17:59:17.624Z,9.28
2019-02-11T18:01:49.319Z,9.12
2019-02-11T18:04:20.974Z,9.14
2019-02-11T18:06:52.514Z,9.18
2019-02-11T18:09:24.243Z,9.22
2019-02-11T18:11:55.535Z,9.15
2019-02-11T18:14:27.114Z,9.02
2019-02-11T18:16:58.346Z,8.97
2019-02-11T18:19:29.733Z,9.02
2019-02-11T18:22:01.393Z,8.96
2019-02-11T18:24:32.762Z,9.04
2019-02-11T18:27:04.146Z,8.93
2019-02-11T18:29:35.637Z,8.89
2019-02-11T18:32:07.386Z,8.86
2019-02-11T18:34:39.064Z,8.92
2019-02-11T18:37:10.827Z,8.88
2019-02-11T18:39:42.236Z,8.88
2019-02-11T18:42:14.267Z,8.89
2019-02-11T18:44:46.144Z,9.01
2019-02-11T18:47:18.025Z,8.95
2019-02-11T18:49:49.553Z,8.84
2019-02-11T18:52:21.297Z,8.78
2019-02-11T18:54:52.875Z,8.77
2019-02-11T18:57:24.270Z,8.76
2019-02-11T18:59:55.642Z,8.76
2019-02-11T19:02:27.657Z,8.71
2019-02-11T19:04:59.111Z,8.65
2019-02-11T19:07:31.040Z,8.74
2019-02-11T19:10:02.494Z,8.64
2019-02-11T19:12:34.648Z,8.63
2019-02-11T19:15:06.965Z,8.64
2019-02-11T19:17:38.539Z,8.54
2019-02-11T19:20:11.284Z,8.68
2019-02-11T19:22:42.885Z,8.65
2019-02-11T19:25:14.925Z,8.71
2019-02-11T19:27:46.285Z,8.55
2019-02-11T19:30:21.002Z,8.58
2019-02-11T19:32:52.795Z,8.55
2019-02-11T19:35:24.470Z,8.48
2019-02-11T19:37:56.242Z,8.36
2019-02-11T19:40:28.047Z,8.37
2019-02-11T19:42:59.389Z,8.38
2019-02-11T19:45:32.909Z,8.36
2019-02-11T19:48:04.266Z,8.30
2019-02-11T19:50:35.771Z,8.29
2019-02-11T19:53:07.530Z,8.16
2019-02-11T19:55:38.757Z,8.02
2019-02-11T19:58:10.333Z,7.92
2019-02-11T20:00:41.881Z,7.95
2019-02-11T20:03:13.248Z,8.02
2019-02-11T20:05:44.890Z,8.03
2019-02-11T20:08:16.205Z,8.06
2019-02-11T20:10:47.720Z,8.14
2019-02-11T20:13:19.269Z,8.25
2019-02-11T20:15:50.626Z,8.24
2019-02-11T20:18:21.880Z,8.19
2019-02-11T20:20:53.468Z,8.07
2019-02-11T20:23:24.830Z,8.03
2019-02-11T20:25:57.107Z,8.16
2019-02-11T20:28:28.696Z,8.08
2019-02-11T20:31:00.112Z,8.16
2019-02-11T20:33:31.639Z,8.17
2019-02-11T20:36:02.985Z,8.00
2019-02-11T20:38:34.407Z,7.92
2019-02-11T20:41:05.903Z,7.92
2019-02-11T20:43:37.644Z,8.08
2019-02-11T20:46:09.017Z,8.28
2019-02-11T20:48:40.882Z,8.16
2019-02-11T20:51:13.497Z,7.96
2019-02-11T20:53:45.110Z,7.77
2019-02-11T20:56:16.691Z,7.72
2019-02-11T20:58:48.616Z,7.60
2019-02-11T21:01:20.114Z,7.58
2019-02-11T21:03:51.769Z,7.51
2019-02-11T21:06:23.524Z,7.44
2019-02-11T21:08:55.053Z,7.39
2019-02-11T21:11:26.893Z,7.33
2019-02-11T21:13:58.390Z,7.20
2019-02-11T21:16:29.699Z,7.28
2019-02-11T21:19:01.291Z,7.34
2019-02-11T21:21:35.346Z,7.38
2019-02-11T21:24:06.980Z,7.43
2019-02-11T21:26:38.514Z,7.46
2019-02-11T21:29:10.395Z,7.62
2019-02-11T21:31:42.140Z,7.54
2019-02-11T21:34:13.999Z,7.29
2019-02-11T21:36:45.765Z,7.06
2019-02-11T21:39:17.555Z,6.53
2019-02-11T21:41:49.018Z,6.28
2019-02-11T21:44:20.655Z,5.97
2019-02-11T21:46:52.924Z,5.94
2019-02-11T21:49:24.791Z,5.83
2019-02-11T21:51:56.516Z,5.83
2019-02-11T21:54:28.238Z,5.75
2019-02-11T21:56:59.895Z,5.68
2019-02-11T21:59:31.487Z,5.51
2019-02-11T22:02:03.272Z,5.10
2019-02-11T22:04:34.921Z,5.02
2019-02-11T22:07:06.503Z,4.86
2019-02-11T22:09:38.218Z,4.52
2019-02-11T22:12:09.787Z,4.37
2019-02-11T22:14:41.426Z,4.22
2019-02-11T22:17:13.191Z,3.98
2019-02-11T22:19:44.655Z,3.79
2019-02-11T22:22:16.242Z,3.69
2019-02-11T22:24:47.953Z,3.56
2019-02-11T22:27:19.690Z,3.46
2019-02-11T22:29:51.523Z,3.36
2019-02-11T22:32:22.777Z,3.31
2019-02-11T22:34:54.602Z,3.06
2019-02-11T22:37:27.227Z,3.13
2019-02-11T22:39:58.644Z,3.04
2019-02-11T22:42:30.204Z,3.17
2019-02-11T22:45:01.747Z,3.15
2019-02-11T22:47:33.409Z,3.15
2019-02-11T22:50:05.436Z,3.15
2019-02-11T22:52:37.117Z,2.96
2019-02-11T22:55:09.531Z,2.96
2019-02-11T22:57:41.421Z,3.09
2019-02-11T23:00:22.097Z,3.03
2019-02-11T23:02:55.221Z,2.92
2019-02-11T23:05:27.559Z,3.02
2019-02-11T23:07:59.141Z,3.04
2019-02-11T23:10:30.849Z,3.05
2019-02-11T23:13:02.910Z,3.04
2019-02-11T23:15:34.550Z,3.04
2019-02-11T23:18:06.180Z,3.07
2019-02-11T23:20:37.728Z,3.08
2019-02-11T23:23:09.651Z,3.10
2019-02-11T23:25:41.167Z,3.19
2019-02-11T23:28:12.932Z,3.26
2019-02-11T23:30:44.320Z,3.27
2019-02-11T23:33:16.814Z,3.33
2019-02-11T23:35:48.305Z,3.27
2019-02-11T23:38:19.935Z,3.07
2019-02-11T23:40:51.677Z,3.00
2019-02-11T23:43:23.026Z,2.95
2019-02-11T23:45:54.455Z,2.88
2019-02-11T23:48:26.154Z,2.89
2019-02-11T23:51:00.422Z,2.83
2019-02-11T23:53:30.867Z,2.88
2019-02-11T23:56:02.080Z,2.96
2019-02-11T23:58:33.485Z,2.96
